Esterel, Canada
Current Conditions -  °F | °C
As of 8:00 PM on Wednesday 22 Oct 2014 (Local Time) from CYMX Reporting Station
Few Clouds Few Clouds  
Wind Chill: 45°   Ceiling: Unl
Heat Index: 48°   Visibility: 25mi
Dew Point: 34°   Wind: 7mph
Humidity: 57%   Direction: 30°NNE
Pressure: 30.25"   Gusts: NA
Location:  46.03°N, 74.03°W
Report Text: CYMX 230000Z 03006KT 350V090 25SM FEW060 09/01 A3025 RMK SC1 SLP247
Loading
Personal Weather Stations






























Interactive Weather Map
Tropical Storm Tracking
New forecast layout! Learn more

10-Day Weather Forecast

Advertisements
Track Severe Weather on mobile